Terminal Aerodrome Forecast
Issued by NWS

Current Version | Previous Version | Text Only | Print | Product List | Glossary On
Versions: 1 2 3 4 5 6 7 8 9 10 11 12 13 14 15 16 17 18 19 20 21 22 23 24 25 26 27 28 29 30
425
FTUS42 TJSJ 161850 AAB
TAFJPS
TAF AMD
TJPS 161850Z 1619/1718 16015G23KT P6SM VCTS SCT030CB SCT060
      TEMPO 1619/1621 VRB15G25KT 3SM TSRA BKN020CB
     FM162300 10008KT P6SM FEW030 SCT060
     FM170300 07004KT P6SM FEW030 SCT060
     FM171400 15015G22KT P6SM FEW030=

USA.gov is the U.S. government's official web portal to all federal, state and local government web resources and services.